sensor_id;sensor_type;location;lat;lon;timestamp;pressure;altitude;pressure_sealevel;temperature;humidity
35989;BME280;22064;42.672;23.282;2023-03-01T00:02:21;95101.72;;;5.13;100.00
35989;BME280;22064;42.672;23.282;2023-03-01T00:04:47;95106.91;;;5.13;100.00
35989;BME280;22064;42.672;23.282;2023-03-01T00:07:13;95098.19;;;5.14;100.00
35989;BME280;22064;42.672;23.282;2023-03-01T00:09:39;95084.84;;;5.10;100.00
35989;BME280;22064;42.672;23.282;2023-03-01T00:12:06;95085.84;;;5.09;100.00
35989;BME280;22064;42.672;23.282;2023-03-01T00:14:32;95087.25;;;5.19;100.00
35989;BME280;22064;42.672;23.282;2023-03-01T00:16:57;95073.94;;;5.08;100.00
35989;BME280;22064;42.672;23.282;2023-03-01T00:19:24;95067.78;;;5.03;100.00
35989;BME280;22064;42.672;23.282;2023-03-01T00:21:50;95079.50;;;5.05;100.00
35989;BME280;22064;42.672;23.282;2023-03-01T00:24:16;95048.09;;;4.95;100.00
35989;BME280;22064;42.672;23.282;2023-03-01T00:26:42;95065.41;;;5.15;100.00
35989;BME280;22064;42.672;23.282;2023-03-01T00:29:08;95051.91;;;5.06;100.00
35989;BME280;22064;42.672;23.282;2023-03-01T00:31:34;95037.19;;;4.86;100.00
35989;BME280;22064;42.672;23.282;2023-03-01T00:34:03;95052.28;;;5.03;100.00
35989;BME280;22064;42.672;23.282;2023-03-01T00:36:34;95042.75;;;4.97;100.00
35989;BME280;22064;42.672;23.282;2023-03-01T00:39:01;95045.13;;;4.92;100.00
35989;BME280;22064;42.672;23.282;2023-03-01T00:41:28;95042.16;;;5.01;100.00
35989;BME280;22064;42.672;23.282;2023-03-01T00:43:55;95043.75;;;5.02;100.00
35989;BME280;22064;42.672;23.282;2023-03-01T00:46:23;95037.38;;;4.92;100.00
35989;BME280;22064;42.672;23.282;2023-03-01T00:48:50;95037.38;;;4.92;100.00
35989;BME280;22064;42.672;23.282;2023-03-01T00:51:18;95036.00;;;5.02;100.00
35989;BME280;22064;42.672;23.282;2023-03-01T00:53:45;95033.03;;;4.99;100.00
35989;BME280;22064;42.672;23.282;2023-03-01T00:56:13;95047.91;;;5.03;100.00
35989;BME280;22064;42.672;23.282;2023-03-01T00:58:40;95039.94;;;4.92;100.00
35989;BME280;22064;42.672;23.282;2023-03-01T01:01:13;95045.50;;;4.95;100.00
35989;BME280;22064;42.672;23.282;2023-03-01T01:03:45;95054.25;;;4.94;100.00
35989;BME280;22064;42.672;23.282;2023-03-01T01:06:38;95059.03;;;4.97;100.00
35989;BME280;22064;42.672;23.282;2023-03-01T01:09:06;95053.25;;;4.89;100.00
35989;BME280;22064;42.672;23.282;2023-03-01T01:11:33;95049.06;;;4.81;100.00
35989;BME280;22064;42.672;23.282;2023-03-01T01:14:01;95045.09;;;4.85;100.00
35989;BME280;22064;42.672;23.282;2023-03-01T01:16:29;95043.31;;;4.85;100.00
35989;BME280;22064;42.672;23.282;2023-03-01T01:18:56;95043.72;;;4.82;100.00
35989;BME280;22064;42.672;23.282;2023-03-01T01:21:23;95045.09;;;4.85;100.00
35989;BME280;22064;42.672;23.282;2023-03-01T01:23:50;95045.91;;;4.92;100.00
35989;BME280;22064;42.672;23.282;2023-03-01T01:26:27;95054.66;;;4.98;100.00
35989;BME280;22064;42.672;23.282;2023-03-01T01:28:53;95044.72;;;4.95;100.00
35989;BME280;22064;42.672;23.282;2023-03-01T01:31:19;95042.97;;;5.02;100.00
35989;BME280;22064;42.672;23.282;2023-03-01T01:33:46;95047.91;;;4.97;100.00
35989;BME280;22064;42.672;23.282;2023-03-01T01:36:12;95053.06;;;4.97;100.00
35989;BME280;22064;42.672;23.282;2023-03-01T01:38:38;95062.78;;;4.95;100.00
35989;BME280;22064;42.672;23.282;2023-03-01T01:41:05;95072.94;;;5.03;100.00
35989;BME280;22064;42.672;23.282;2023-03-01T01:43:35;95075.31;;;4.98;100.00
35989;BME280;22064;42.672;23.282;2023-03-01T01:49:06;95076.47;;;4.95;100.00
35989;BME280;22064;42.672;23.282;2023-03-01T01:51:35;95071.16;;;5.03;100.00
35989;BME280;22064;42.672;23.282;2023-03-01T01:54:10;95070.34;;;5.03;100.00
35989;BME280;22064;42.672;23.282;2023-03-01T01:56:38;95067.00;;;5.09;100.00
35989;BME280;22064;42.672;23.282;2023-03-01T01:59:06;95066.19;;;5.08;100.00
35989;BME280;22064;42.672;23.282;2023-03-01T02:01:32;95066.19;;;5.08;100.00
35989;BME280;22064;42.672;23.282;2023-03-01T02:03:58;95056.28;;;5.19;100.00
35989;BME280;22064;42.672;23.282;2023-03-01T02:06:48;95040.00;;;5.18;100.00
35989;BME280;22064;42.672;23.282;2023-03-01T02:09:19;95044.38;;;5.11;100.00
35989;BME280;22064;42.672;23.282;2023-03-01T02:11:48;95030.06;;;5.15;100.00
35989;BME280;22064;42.672;23.282;2023-03-01T02:14:15;95019.75;;;5.08;100.00
35989;BME280;22064;42.672;23.282;2023-03-01T02:16:42;95027.09;;;5.05;100.00
35989;BME280;22064;42.672;23.282;2023-03-01T02:19:13;95039.78;;;5.13;100.00
35989;BME280;22064;42.672;23.282;2023-03-01T02:26:56;95023.09;;;5.09;100.00
35989;BME280;22064;42.672;23.282;2023-03-01T02:29:24;95037.19;;;5.00;100.00
35989;BME280;22064;42.672;23.282;2023-03-01T02:31:52;95034.84;;;5.05;100.00
35989;BME280;22064;42.672;23.282;2023-03-01T02:34:23;95047.72;;;5.05;100.00
35989;BME280;22064;42.672;23.282;2023-03-01T02:37:01;95054.47;;;5.06;100.00
35989;BME280;22064;42.672;23.282;2023-03-01T02:39:44;95055.09;;;5.08;100.00
35989;BME280;22064;42.672;23.282;2023-03-01T02:42:22;95048.13;;;5.08;100.00
35989;BME280;22064;42.672;23.282;2023-03-01T02:44:49;95053.47;;;5.07;100.00
35989;BME280;22064;42.672;23.282;2023-03-01T02:47:15;95045.72;;;5.00;100.00
35989;BME280;22064;42.672;23.282;2023-03-01T02:49:42;95050.72;;;5.02;100.00
35989;BME280;22064;42.672;23.282;2023-03-01T02:57:06;95038.00;;;5.00;100.00
35989;BME280;22064;42.672;23.282;2023-03-01T02:59:35;95040.78;;;4.99;100.00
35989;BME280;22064;42.672;23.282;2023-03-01T03:02:07;95034.78;;;4.92;100.00
35989;BME280;22064;42.672;23.282;2023-03-01T03:04:34;95039.16;;;4.91;100.00
35989;BME280;22064;42.672;23.282;2023-03-01T03:07:00;95038.75;;;4.88;100.00
35989;BME280;22064;42.672;23.282;2023-03-01T03:09:26;95035.19;;;4.82;100.00
35989;BME280;22064;42.672;23.282;2023-03-01T03:11:52;95027.63;;;4.74;100.00
35989;BME280;22064;42.672;23.282;2023-03-01T03:14:18;95035.16;;;4.75;100.00
35989;BME280;22064;42.672;23.282;2023-03-01T03:16:49;95051.25;;;4.77;100.00
35989;BME280;22064;42.672;23.282;2023-03-01T03:19:16;95057.78;;;4.73;100.00
35989;BME280;22064;42.672;23.282;2023-03-01T03:21:43;95046.66;;;4.73;100.00
35989;BME280;22064;42.672;23.282;2023-03-01T03:24:08;95051.25;;;4.77;100.00
35989;BME280;22064;42.672;23.282;2023-03-01T03:26:34;95046.66;;;4.73;100.00
35989;BME280;22064;42.672;23.282;2023-03-01T03:29:00;95052.63;;;4.73;100.00
35989;BME280;22064;42.672;23.282;2023-03-01T03:31:26;95050.44;;;4.70;100.00
35989;BME280;22064;42.672;23.282;2023-03-01T03:33:53;95040.88;;;4.64;100.00
35989;BME280;22064;42.672;23.282;2023-03-01T03:36:22;95049.84;;;4.68;100.00
35989;BME280;22064;42.672;23.282;2023-03-01T03:38:48;95050.22;;;4.65;100.00
35989;BME280;22064;42.672;23.282;2023-03-01T03:41:15;95053.78;;;4.64;100.00
35989;BME280;22064;42.672;23.282;2023-03-01T03:43:42;95063.13;;;4.65;100.00
35989;BME280;22064;42.672;23.282;2023-03-01T03:46:10;95056.56;;;4.62;100.00
35989;BME280;22064;42.672;23.282;2023-03-01T03:48:40;95056.75;;;4.61;100.00
35989;BME280;22064;42.672;23.282;2023-03-01T03:51:09;95067.28;;;4.66;100.00
35989;BME280;22064;42.672;23.282;2023-03-01T03:53:35;95053.78;;;4.57;100.00
35989;BME280;22064;42.672;23.282;2023-03-01T03:56:01;95053.59;;;4.59;100.00
35989;BME280;22064;42.672;23.282;2023-03-01T03:58:26;95043.44;;;4.57;100.00
35989;BME280;22064;42.672;23.282;2023-03-01T04:00:55;95044.28;;;4.65;100.00
35989;BME280;22064;42.672;23.282;2023-03-01T04:03:23;95037.50;;;4.57;100.00
35989;BME280;22064;42.672;23.282;2023-03-01T04:05:50;95055.38;;;4.58;100.00
35989;BME280;22064;42.672;23.282;2023-03-01T04:08:20;95059.53;;;4.59;100.00
35989;BME280;22064;42.672;23.282;2023-03-01T04:10:49;95066.09;;;4.55;100.00
35989;BME280;22064;42.672;23.282;2023-03-01T04:13:18;95063.28;;;4.57;100.00
35989;BME280;22064;42.672;23.282;2023-03-01T04:15:49;95056.34;;;4.51;100.00
35989;BME280;22064;42.672;23.282;2023-03-01T04:18:17;95049.97;;;4.40;100.00
35989;BME280;22064;42.672;23.282;2023-03-01T04:20:45;95053.31;;;4.40;100.00
35989;BME280;22064;42.672;23.282;2023-03-01T04:23:13;95049.72;;;4.28;100.00
35989;BME280;22064;42.672;23.282;2023-03-01T04:25:42;95056.53;;;4.43;100.00
35989;BME280;22064;42.672;23.282;2023-03-01T04:28:09;95056.69;;;4.34;100.00
35989;BME280;22064;42.672;23.282;2023-03-01T04:30:36;95036.38;;;4.18;100.00
35989;BME280;22064;42.672;23.282;2023-03-01T04:33:04;95053.47;;;4.32;100.00
35989;BME280;22064;42.672;23.282;2023-03-01T04:35:31;95056.47;;;4.36;100.00
35989;BME280;22064;42.672;23.282;2023-03-01T04:37:58;95054.31;;;4.39;100.00
35989;BME280;22064;42.672;23.282;2023-03-01T04:40:24;95044.81;;;4.40;100.00
35989;BME280;22064;42.672;23.282;2023-03-01T04:42:50;95042.03;;;4.42;100.00
35989;BME280;22064;42.672;23.282;2023-03-01T04:45:16;95047.78;;;4.37;100.00
35989;BME280;22064;42.672;23.282;2023-03-01T04:47:44;95039.03;;;4.38;100.00
35989;BME280;22064;42.672;23.282;2023-03-01T04:50:16;95044.41;;;4.43;100.00
35989;BME280;22064;42.672;23.282;2023-03-01T04:52:43;95035.13;;;4.55;100.00
35989;BME280;22064;42.672;23.282;2023-03-01T04:55:10;95041.47;;;4.59;100.00
35989;BME280;22064;42.672;23.282;2023-03-01T04:57:36;95043.44;;;4.57;100.00
35989;BME280;22064;42.672;23.282;2023-03-01T05:00:03;95023.59;;;4.51;100.00
35989;BME280;22064;42.672;23.282;2023-03-01T05:02:54;95040.31;;;4.62;100.00
35989;BME280;22064;42.672;23.282;2023-03-01T05:05:32;95036.31;;;4.59;100.00
35989;BME280;22064;42.672;23.282;2023-03-01T05:08:01;95039.13;;;4.58;100.00
35989;BME280;22064;42.672;23.282;2023-03-01T05:10:28;95039.88;;;4.52;100.00
35989;BME280;22064;42.672;23.282;2023-03-01T05:12:59;95044.66;;;4.55;100.00
35989;BME280;22064;42.672;23.282;2023-03-01T05:15:26;95044.28;;;4.58;100.00
35989;BME280;22064;42.672;23.282;2023-03-01T05:17:55;95039.28;;;4.56;100.00
35989;BME280;22064;42.672;23.282;2023-03-01T05:20:24;95051.41;;;4.56;100.00
35989;BME280;22064;42.672;23.282;2023-03-01T05:22:51;95056.53;;;4.49;100.00
35989;BME280;22064;42.672;23.282;2023-03-01T05:25:18;95052.16;;;4.50;100.00
35989;BME280;22064;42.672;23.282;2023-03-01T05:27:44;95054.13;;;4.48;100.00
35989;BME280;22064;42.672;23.282;2023-03-01T05:30:10;95048.97;;;4.48;100.00
35989;BME280;22064;42.672;23.282;2023-03-01T05:32:44;95052.41;;;4.55;100.00
35989;BME280;22064;42.672;23.282;2023-03-01T05:35:12;95054.59;;;4.58;100.00
35989;BME280;22064;42.672;23.282;2023-03-01T05:37:49;95046.25;;;4.62;100.00
35989;BME280;22064;42.672;23.282;2023-03-01T05:40:17;95013.66;;;4.42;100.00
35989;BME280;22064;42.672;23.282;2023-03-01T05:42:45;95041.88;;;4.63;100.00
35989;BME280;22064;42.672;23.282;2023-03-01T05:45:13;95037.50;;;4.57;100.00
35989;BME280;22064;42.672;23.282;2023-03-01T05:47:40;95032.97;;;4.59;100.00
35989;BME280;22064;42.672;23.282;2023-03-01T05:50:20;95051.03;;;4.66;100.00
35989;BME280;22064;42.672;23.282;2023-03-01T05:52:49;95051.41;;;4.62;100.00
35989;BME280;22064;42.672;23.282;2023-03-01T05:55:17;95062.75;;;4.75;100.00
35989;BME280;22064;42.672;23.282;2023-03-01T05:57:43;95055.81;;;4.75;100.00
35989;BME280;22064;42.672;23.282;2023-03-01T06:00:10;95076.84;;;4.85;100.00
35989;BME280;22064;42.672;23.282;2023-03-01T06:02:38;95070.13;;;4.84;100.00
35989;BME280;22064;42.672;23.282;2023-03-01T06:05:06;95075.88;;;4.86;100.00
35989;BME280;22064;42.672;23.282;2023-03-01T06:07:32;95084.66;;;4.99;100.00
35989;BME280;22064;42.672;23.282;2023-03-01T06:09:58;95087.25;;;5.05;100.00
35989;BME280;22064;42.672;23.282;2023-03-01T06:12:24;95096.38;;;5.15;100.00
35989;BME280;22064;42.672;23.282;2023-03-01T06:14:50;95091.41;;;5.20;100.00
35989;BME280;22064;42.672;23.282;2023-03-01T06:17:16;95093.59;;;5.09;100.00
35989;BME280;22064;42.672;23.282;2023-03-01T06:19:42;95094.78;;;5.07;100.00
35989;BME280;22064;42.672;23.282;2023-03-01T06:22:08;95098.75;;;5.03;100.00
35989;BME280;22064;42.672;23.282;2023-03-01T06:24:34;95099.16;;;5.06;100.00
35989;BME280;22064;42.672;23.282;2023-03-01T06:27:00;95102.09;;;4.97;100.00
35989;BME280;22064;42.672;23.282;2023-03-01T06:29:26;95096.53;;;4.86;100.00
35989;BME280;22064;42.672;23.282;2023-03-01T06:31:52;95097.13;;;4.89;100.00
35989;BME280;22064;42.672;23.282;2023-03-01T06:34:18;95089.38;;;4.89;100.00
35989;BME280;22064;42.672;23.282;2023-03-01T06:36:44;95102.09;;;4.83;100.00
35989;BME280;22064;42.672;23.282;2023-03-01T06:39:11;95102.66;;;4.79;100.00
35989;BME280;22064;42.672;23.282;2023-03-01T06:41:37;95102.09;;;4.83;100.00
35989;BME280;22064;42.672;23.282;2023-03-01T06:44:03;95103.69;;;4.91;100.00
35989;BME280;22064;42.672;23.282;2023-03-01T06:46:29;95105.47;;;4.91;100.00
35989;BME280;22064;42.672;23.282;2023-03-01T06:48:55;95096.72;;;4.92;100.00
35989;BME280;22064;42.672;23.282;2023-03-01T06:51:21;95101.50;;;4.95;100.00
35989;BME280;22064;42.672;23.282;2023-03-01T06:53:47;95109.25;;;4.95;100.00
35989;BME280;22064;42.672;23.282;2023-03-01T06:56:13;95097.16;;;5.02;100.00
35989;BME280;22064;42.672;23.282;2023-03-01T06:58:39;95101.16;;;5.11;100.00
35989;BME280;22064;42.672;23.282;2023-03-01T07:01:07;95102.53;;;5.07;100.00
35989;BME280;22064;42.672;23.282;2023-03-01T07:03:33;95099.53;;;5.10;100.00
35989;BME280;22064;42.672;23.282;2023-03-01T07:05:59;95101.16;;;5.18;100.00
35989;BME280;22064;42.672;23.282;2023-03-01T07:08:25;95107.53;;;5.28;100.00
35989;BME280;22064;42.672;23.282;2023-03-01T07:10:58;95106.72;;;5.35;100.00
35989;BME280;22064;42.672;23.282;2023-03-01T07:13:25;95107.72;;;5.40;100.00
35989;BME280;22064;42.672;23.282;2023-03-01T07:15:50;95099.00;;;5.54;100.00
35989;BME280;22064;42.672;23.282;2023-03-01T07:18:16;95094.63;;;5.55;100.00
35989;BME280;22064;42.672;23.282;2023-03-01T07:20:42;95092.03;;;5.68;100.00
35989;BME280;22064;42.672;23.282;2023-03-01T07:23:08;95086.09;;;5.61;100.00
35989;BME280;22064;42.672;23.282;2023-03-01T07:25:34;95095.41;;;5.89;100.00
35989;BME280;22064;42.672;23.282;2023-03-01T07:28:00;95095.78;;;6.06;100.00
35989;BME280;22064;42.672;23.282;2023-03-01T07:30:26;95092.81;;;6.02;100.00
35989;BME280;22064;42.672;23.282;2023-03-01T07:32:54;95093.19;;;6.12;100.00
35989;BME280;22064;42.672;23.282;2023-03-01T07:35:22;95087.22;;;6.12;100.00
35989;BME280;22064;42.672;23.282;2023-03-01T07:37:48;95084.84;;;6.10;100.00
35989;BME280;22064;42.672;23.282;2023-03-01T07:40:14;95083.06;;;6.17;100.00
35989;BME280;22064;42.672;23.282;2023-03-01T07:42:40;95094.34;;;6.30;100.00
35989;BME280;22064;42.672;23.282;2023-03-01T07:45:06;95090.34;;;6.40;100.00
35989;BME280;22064;42.672;23.282;2023-03-01T07:47:32;95089.91;;;6.50;100.00
35989;BME280;22064;42.672;23.282;2023-03-01T07:49:58;95070.66;;;6.39;100.00
35989;BME280;22064;42.672;23.282;2023-03-01T07:52:24;95089.53;;;6.40;100.00
35989;BME280;22064;42.672;23.282;2023-03-01T07:54:50;95086.16;;;6.39;100.00
35989;BME280;22064;42.672;23.282;2023-03-01T07:57:16;95076.06;;;6.24;100.00
35989;BME280;22064;42.672;23.282;2023-03-01T07:59:42;95072.31;;;6.20;100.00
35989;BME280;22064;42.672;23.282;2023-03-01T08:02:09;95074.50;;;6.17;100.00
35989;BME280;22064;42.672;23.282;2023-03-01T08:04:36;95076.81;;;6.32;100.00
35989;BME280;22064;42.672;23.282;2023-03-01T08:07:05;95080.19;;;6.45;100.00
35989;BME280;22064;42.672;23.282;2023-03-01T08:09:31;95069.13;;;6.63;100.00
35989;BME280;22064;42.672;23.282;2023-03-01T08:11:57;95074.50;;;6.68;100.00
35989;BME280;22064;42.672;23.282;2023-03-01T08:14:26;95075.28;;;6.69;100.00
35989;BME280;22064;42.672;23.282;2023-03-01T08:16:52;95078.28;;;6.66;100.00
35989;BME280;22064;42.672;23.282;2023-03-01T08:19:18;95065.25;;;6.86;100.00
35989;BME280;22064;42.672;23.282;2023-03-01T08:21:44;95073.34;;;6.96;100.00
35989;BME280;22064;42.672;23.282;2023-03-01T08:24:09;95064.88;;;6.82;100.00
35989;BME280;22064;42.672;23.282;2023-03-01T08:26:36;95080.22;;;7.15;100.00
35989;BME280;22064;42.672;23.282;2023-03-01T08:29:03;95074.03;;;7.16;100.00
35989;BME280;22064;42.672;23.282;2023-03-01T08:31:32;95070.31;;;7.06;100.00
35989;BME280;22064;42.672;23.282;2023-03-01T08:34:00;95077.47;;;7.04;100.00
35989;BME280;22064;42.672;23.282;2023-03-01T08:36:38;95079.63;;;7.13;100.00
35989;BME280;22064;42.672;23.282;2023-03-01T08:39:05;95086.22;;;7.09;100.00
35989;BME280;22064;42.672;23.282;2023-03-01T08:41:32;95082.69;;;7.29;100.00
35989;BME280;22064;42.672;23.282;2023-03-01T08:43:58;95074.38;;;7.27;100.00
35989;BME280;22064;42.672;23.282;2023-03-01T08:46:35;95071.50;;;7.35;100.00
35989;BME280;22064;42.672;23.282;2023-03-01T08:49:06;95082.13;;;7.27;100.00
35989;BME280;22064;42.672;23.282;2023-03-01T08:51:33;95078.59;;;7.21;100.00
35989;BME280;22064;42.672;23.282;2023-03-01T08:54:04;95071.66;;;7.40;100.00
35989;BME280;22064;42.672;23.282;2023-03-01T08:56:30;95080.81;;;7.68;100.00
35989;BME280;22064;42.672;23.282;2023-03-01T08:58:56;95082.09;;;8.02;100.00
35989;BME280;22064;42.672;23.282;2023-03-01T09:01:22;95074.97;;;7.97;100.00
35989;BME280;22064;42.672;23.282;2023-03-01T09:03:48;95084.78;;;7.95;100.00
35989;BME280;22064;42.672;23.282;2023-03-01T09:06:14;95074.19;;;7.72;100.00
35989;BME280;22064;42.672;23.282;2023-03-01T09:08:44;95080.16;;;7.79;100.00
35989;BME280;22064;42.672;23.282;2023-03-01T09:11:12;95082.03;;;7.90;100.00
35989;BME280;22064;42.672;23.282;2023-03-01T09:13:39;95083.50;;;8.04;100.00
35989;BME280;22064;42.672;23.282;2023-03-01T09:16:06;95091.59;;;7.90;100.00
35989;BME280;22064;42.672;23.282;2023-03-01T09:18:33;95072.22;;;7.92;100.00
35989;BME280;22064;42.672;23.282;2023-03-01T09:21:13;95072.22;;;7.92;100.00
35989;BME280;22064;42.672;23.282;2023-03-01T09:23:46;95082.19;;;7.95;100.00
35989;BME280;22064;42.672;23.282;2023-03-01T09:26:19;95076.34;;;8.18;100.00
35989;BME280;22064;42.672;23.282;2023-03-01T09:28:47;95076.06;;;8.08;100.00
35989;BME280;22064;42.672;23.282;2023-03-01T09:31:14;95077.72;;;8.02;100.00
35989;BME280;22064;42.672;23.282;2023-03-01T09:33:41;95078.84;;;7.88;100.00
35989;BME280;22064;42.672;23.282;2023-03-01T09:36:11;95077.41;;;7.92;100.00
35989;BME280;22064;42.672;23.282;2023-03-01T09:38:38;95065.75;;;7.83;100.00
35989;BME280;22064;42.672;23.282;2023-03-01T09:41:11;95062.00;;;7.79;100.00
35989;BME280;22064;42.672;23.282;2023-03-01T09:43:51;95069.16;;;8.02;100.00
35989;BME280;22064;42.672;23.282;2023-03-01T09:46:23;95062.84;;;7.73;100.00
35989;BME280;22064;42.672;23.282;2023-03-01T09:51:21;95053.94;;;7.87;100.00
35989;BME280;22064;42.672;23.282;2023-03-01T09:53:49;95047.94;;;7.86;100.00
35989;BME280;22064;42.672;23.282;2023-03-01T09:56:22;95043.03;;;7.78;100.00
35989;BME280;22064;42.672;23.282;2023-03-01T09:59:10;95044.03;;;7.77;100.00
35989;BME280;22064;42.672;23.282;2023-03-01T10:07:17;95046.44;;;8.34;100.00
35989;BME280;22064;42.672;23.282;2023-03-01T10:09:46;95037.25;;;8.38;100.00
35989;BME280;22064;42.672;23.282;2023-03-01T10:12:16;95041.69;;;8.68;100.00
35989;BME280;22064;42.672;23.282;2023-03-01T10:15:04;95046.59;;;8.88;100.00
35989;BME280;22064;42.672;23.282;2023-03-01T10:20:21;95034.34;;;8.28;100.00
35989;BME280;22064;42.672;23.282;2023-03-01T10:22:48;95038.31;;;8.12;100.00
35989;BME280;22064;42.672;23.282;2023-03-01T10:28:25;95027.88;;;7.82;100.00
35989;BME280;22064;42.672;23.282;2023-03-01T10:30:51;95029.31;;;7.96;100.00
35989;BME280;22064;42.672;23.282;2023-03-01T10:33:31;95027.00;;;8.43;100.00
35989;BME280;22064;42.672;23.282;2023-03-01T10:35:57;95022.63;;;8.74;100.00
35989;BME280;22064;42.672;23.282;2023-03-01T10:38:24;95013.41;;;8.60;100.00
35989;BME280;22064;42.672;23.282;2023-03-01T10:43:52;95021.16;;;8.29;100.00
35989;BME280;22064;42.672;23.282;2023-03-01T10:46:32;95027.31;;;8.65;100.00
35989;BME280;22064;42.672;23.282;2023-03-01T10:49:19;95018.06;;;8.58;100.00
35989;BME280;22064;42.672;23.282;2023-03-01T10:51:50;95016.88;;;8.53;100.00
35989;BME280;22064;42.672;23.282;2023-03-01T10:54:28;94995.22;;;8.11;100.00
35989;BME280;22064;42.672;23.282;2023-03-01T10:56:59;95014.88;;;8.19;100.00
35989;BME280;22064;42.672;23.282;2023-03-01T10:59:29;95020.00;;;8.44;100.00
35989;BME280;22064;42.672;23.282;2023-03-01T11:05:00;95024.53;;;8.67;100.00
35989;BME280;22064;42.672;23.282;2023-03-01T11:07:27;95020.41;;;8.59;100.00
35989;BME280;22064;42.672;23.282;2023-03-01T11:09:53;95023.81;;;8.90;100.00
35989;BME280;22064;42.672;23.282;2023-03-01T11:12:20;95024.91;;;8.82;100.00
35989;BME280;22064;42.672;23.282;2023-03-01T11:14:48;95023.50;;;8.68;100.00
35989;BME280;22064;42.672;23.282;2023-03-01T11:17:23;95021.16;;;8.66;100.00
35989;BME280;22064;42.672;23.282;2023-03-01T11:20:20;95012.16;;;8.81;100.00
35989;BME280;22064;42.672;23.282;2023-03-01T11:25:24;95010.19;;;8.64;100.00
35989;BME280;22064;42.672;23.282;2023-03-01T11:27:52;94985.03;;;8.46;100.00
35989;BME280;22064;42.672;23.282;2023-03-01T11:30:32;95002.72;;;8.68;100.00
35989;BME280;22064;42.672;23.282;2023-03-01T11:33:20;95016.19;;;8.46;100.00
35989;BME280;22064;42.672;23.282;2023-03-01T11:36:05;95011.50;;;8.55;100.00
35989;BME280;22064;42.672;23.282;2023-03-01T11:38:35;95015.63;;;8.44;100.00
35989;BME280;22064;42.672;23.282;2023-03-01T11:41:16;94993.75;;;8.33;100.00
35989;BME280;22064;42.672;23.282;2023-03-01T11:44:03;94993.41;;;8.30;100.00
35989;BME280;22064;42.672;23.282;2023-03-01T12:22:48;94953.91;;;8.46;100.00
35989;BME280;22064;42.672;23.282;2023-03-01T12:39:27;94936.69;;;9.17;100.00
35989;BME280;22064;42.672;23.282;2023-03-01T12:50:21;94912.28;;;9.30;100.00
35989;BME280;22064;42.672;23.282;2023-03-01T12:52:54;94943.22;;;9.43;100.00
35989;BME280;22064;42.672;23.282;2023-03-01T12:55:42;94939.16;;;9.47;100.00
35989;BME280;22064;42.672;23.282;2023-03-01T12:58:37;94938.13;;;9.72;100.00
35989;BME280;22064;42.672;23.282;2023-03-01T13:09:29;94943.16;;;9.90;100.00
35989;BME280;22064;42.672;23.282;2023-03-01T13:11:58;94937.41;;;9.88;100.00
35989;BME280;22064;42.672;23.282;2023-03-01T13:16:52;94944.78;;;9.80;100.00
35989;BME280;22064;42.672;23.282;2023-03-01T13:19:19;94941.19;;;9.69;100.00
35989;BME280;22064;42.672;23.282;2023-03-01T13:21:46;94947.06;;;9.53;100.00
35989;BME280;22064;42.672;23.282;2023-03-01T13:29:47;94944.13;;;9.61;100.00
35989;BME280;22064;42.672;23.282;2023-03-01T13:32:30;94953.41;;;9.57;100.00
35989;BME280;22064;42.672;23.282;2023-03-01T13:35:01;94951.84;;;9.44;100.00
35989;BME280;22064;42.672;23.282;2023-03-01T13:37:31;94941.53;;;9.25;100.00
35989;BME280;22064;42.672;23.282;2023-03-01T13:40:00;94946.81;;;9.19;100.00
35989;BME280;22064;42.672;23.282;2023-03-01T13:45:05;94938.47;;;9.40;100.00
35989;BME280;22064;42.672;23.282;2023-03-01T13:47:41;94940.97;;;9.23;100.00
35989;BME280;22064;42.672;23.282;2023-03-01T13:50:16;94943.56;;;9.12;100.00
35989;BME280;22064;42.672;23.282;2023-03-01T13:52:48;94934.75;;;9.01;100.00
35989;BME280;22064;42.672;23.282;2023-03-01T13:55:19;94933.72;;;9.02;100.00
35989;BME280;22064;42.672;23.282;2023-03-01T14:00:41;94931.28;;;8.65;100.00
35989;BME280;22064;42.672;23.282;2023-03-01T14:03:17;94934.34;;;8.74;100.00
35989;BME280;22064;42.672;23.282;2023-03-01T14:06:07;94939.69;;;8.79;100.00
35989;BME280;22064;42.672;23.282;2023-03-01T14:08:35;94925.47;;;8.93;100.00
35989;BME280;22064;42.672;23.282;2023-03-01T14:19:16;94933.59;;;9.09;100.00
35989;BME280;22064;42.672;23.282;2023-03-01T14:21:43;94924.53;;;8.76;100.00
35989;BME280;22064;42.672;23.282;2023-03-01T14:24:21;94923.81;;;8.57;100.00
35989;BME280;22064;42.672;23.282;2023-03-01T14:26:49;94932.06;;;8.66;100.00
35989;BME280;22064;42.672;23.282;2023-03-01T14:29:36;94919.53;;;8.63;100.00
35989;BME280;22064;42.672;23.282;2023-03-01T14:34:44;94917.38;;;8.60;100.00
35989;BME280;22064;42.672;23.282;2023-03-01T14:39:46;94921.16;;;8.75;100.00
35989;BME280;22064;42.672;23.282;2023-03-01T14:42:13;94931.50;;;8.64;100.00
35989;BME280;22064;42.672;23.282;2023-03-01T14:44:42;94918.88;;;8.37;100.00
35989;BME280;22064;42.672;23.282;2023-03-01T14:47:15;94926.97;;;8.29;100.00
35989;BME280;22064;42.672;23.282;2023-03-01T14:49:43;94929.28;;;8.19;100.00
35989;BME280;22064;42.672;23.282;2023-03-01T14:52:28;94922.47;;;8.06;100.00
35989;BME280;22064;42.672;23.282;2023-03-01T14:54:57;94919.78;;;7.82;100.00
35989;BME280;22064;42.672;23.282;2023-03-01T14:57:25;94927.03;;;7.74;100.00
35989;BME280;22064;42.672;23.282;2023-03-01T14:59:54;94915.22;;;7.78;100.00
35989;BME280;22064;42.672;23.282;2023-03-01T15:02:23;94912.13;;;7.69;100.00
35989;BME280;22064;42.672;23.282;2023-03-01T15:04:52;94920.75;;;7.63;100.00
35989;BME280;22064;42.672;23.282;2023-03-01T15:07:27;94909.03;;;7.42;100.00
35989;BME280;22064;42.672;23.282;2023-03-01T15:09:53;94912.69;;;7.34;100.00
35989;BME280;22064;42.672;23.282;2023-03-01T15:14:56;94905.63;;;7.05;100.00